Sturgeon, Missouri
Current Conditions -  °F | °C
As of 6:54 AM on Thursday 30 Oct 2014 (Local Time) from KCOU Reporting Station
Broken Clouds Broken Clouds  
Wind Chill: 34°   Ceiling: 9000
Heat Index: 40°   Visibility: 10mi
Dew Point: 35°   Wind: 8mph
Humidity: 83%   Direction: 130°SE
Pressure: 30.09"   Gusts: NA
Location:  39.23°N, 92.28°W
Report Text: KCOU 301154Z 13007KT 10SM BKN090 04/02 A3009 RMK AO2 SLP192 T00440017 10067 20039 57007
Loading
Personal Weather Stations






























Interactive Weather Map
Tropical Storm Tracking
New forecast layout! Learn more

10-Day Weather Forecast

Advertisements
Track Severe Weather on mobile